Time;durP1;ratioP1;P1;durP2;ratioP2;P2;SDS_P1;SDS_P2;PMS_P1;PMS_P2;Temp;Humidity;BMP_temperature;BMP_pressure;BME280_temperature;BME280_humidity;BME280_pressure;Samples;Min_cycle;Max_cycle;Signal;HPM_P1;HPM_P2
2022/08/01 00:02:17;;;;;;;10.00;6.45;;;;;;;;;;5027867;28;21774;-64
2022/08/01 00:04:43;;;;;;;12.00;6.63;;;;;;;;;;5027232;28;20043;-64
2022/08/01 00:07:09;;;;;;;11.52;6.50;;;;;;;;;;5011554;28;20052;-64
2022/08/01 00:09:35;;;;;;;12.43;6.75;;;;;;;;;;5032486;28;20037;-64
2022/08/01 00:12:02;;;;;;;11.52;7.30;;;;;;;;;;5010235;28;20418;-64
2022/08/01 00:14:28;;;;;;;14.18;7.18;;;;;;;;;;5029395;28;20084;-64
2022/08/01 00:16:54;;;;;;;11.98;7.38;;;;;;;;;;5029229;28;20034;-63
2022/08/01 00:19:20;;;;;;;11.82;7.43;;;;;;;;;;5029883;28;20407;-64
2022/08/01 00:21:46;;;;;;;11.10;7.78;;;;;;;;;;5028034;28;20038;-64
2022/08/01 00:24:12;;;;;;;13.80;8.00;;;;;;;;;;5029077;28;20033;-64
2022/08/01 00:26:38;;;;;;;12.15;8.00;;;;;;;;;;5028519;28;20056;-64
2022/08/01 00:29:04;;;;;;;11.52;7.43;;;;;;;;;;5027910;28;20112;-63
2022/08/01 00:31:30;;;;;;;14.65;8.48;;;;;;;;;;5029797;28;20052;-64
2022/08/01 00:33:56;;;;;;;12.50;8.70;;;;;;;;;;5030860;28;20041;-64
2022/08/01 00:36:22;;;;;;;14.73;8.57;;;;;;;;;;5028846;28;20037;-64
2022/08/01 00:38:48;;;;;;;14.43;8.30;;;;;;;;;;5026682;28;20041;-64
2022/08/01 00:41:14;;;;;;;14.02;7.80;;;;;;;;;;5027986;28;20388;-64
2022/08/01 00:43:40;;;;;;;12.32;8.23;;;;;;;;;;5026318;28;20407;-64
2022/08/01 00:46:06;;;;;;;15.10;8.00;;;;;;;;;;5029698;28;20256;-64
2022/08/01 00:48:32;;;;;;;12.38;7.80;;;;;;;;;;5032077;28;20030;-64
2022/08/01 00:50:58;;;;;;;12.70;8.02;;;;;;;;;;5014878;28;20403;-64
2022/08/01 00:53:25;;;;;;;14.65;8.57;;;;;;;;;;5032567;28;20121;-64
2022/08/01 00:55:51;;;;;;;14.25;8.52;;;;;;;;;;5035081;28;20041;-64
2022/08/01 00:58:17;;;;;;;13.93;8.02;;;;;;;;;;5029307;28;20088;-64
2022/08/01 01:00:43;;;;;;;11.82;6.90;;;;;;;;;;5011767;28;20479;-64
2022/08/01 01:03:09;;;;;;;10.93;6.65;;;;;;;;;;5013603;28;20415;-63
2022/08/01 01:05:40;;;;;;;13.82;7.93;;;;;;;;;;5033251;28;20045;-63
2022/08/01 01:08:14;;;;;;;10.90;6.72;;;;;;;;;;5033007;28;20033;-64
2022/08/01 01:10:58;;;;;;;11.23;7.25;;;;;;;;;;5030978;28;20519;-64
2022/08/01 01:13:41;;;;;;;16.42;8.07;;;;;;;;;;5029613;28;20517;-64
2022/08/01 01:16:15;;;;;;;12.60;7.43;;;;;;;;;;5027892;28;20041;-64
2022/08/01 01:18:48;;;;;;;13.50;8.00;;;;;;;;;;5010746;28;20056;-64
2022/08/01 01:21:34;;;;;;;14.07;8.27;;;;;;;;;;5028836;28;20073;-63
2022/08/01 01:24:19;;;;;;;16.27;9.18;;;;;;;;;;4978403;28;20047;-63
2022/08/01 01:26:57;;;;;;;14.30;8.52;;;;;;;;;;5028895;28;20029;-64
2022/08/01 01:29:28;;;;;;;16.20;8.38;;;;;;;;;;5027211;28;20052;-64
2022/08/01 01:31:54;;;;;;;13.23;8.07;;;;;;;;;;5030088;28;20067;-63
2022/08/01 01:34:22;;;;;;;13.18;7.45;;;;;;;;;;5031085;28;20033;-64
2022/08/01 01:36:48;;;;;;;13.55;7.95;;;;;;;;;;5030292;28;20064;-63
2022/08/01 01:39:15;;;;;;;14.13;8.05;;;;;;;;;;5028690;28;20048;-64
2022/08/01 01:41:42;;;;;;;11.15;7.75;;;;;;;;;;5026212;28;20056;-63
2022/08/01 01:44:09;;;;;;;14.85;7.70;;;;;;;;;;5032754;28;20045;-63
2022/08/01 01:46:36;;;;;;;11.13;7.70;;;;;;;;;;5029515;28;22264;-63
2022/08/01 01:49:02;;;;;;;14.85;7.82;;;;;;;;;;5029499;28;20136;-64
2022/08/01 01:51:29;;;;;;;12.00;7.43;;;;;;;;;;5026378;28;20052;-63
2022/08/01 01:53:55;;;;;;;10.48;7.20;;;;;;;;;;5029268;28;20083;-63
2022/08/01 01:56:22;;;;;;;9.88;6.88;;;;;;;;;;5031499;28;20047;-63
2022/08/01 01:58:50;;;;;;;12.15;7.25;;;;;;;;;;5031113;28;20107;-64
2022/08/01 02:01:17;;;;;;;11.15;6.28;;;;;;;;;;5031298;28;20115;-63
2022/08/01 02:03:44;;;;;;;10.73;6.53;;;;;;;;;;5032890;28;20033;-63
2022/08/01 02:06:12;;;;;;;9.38;6.47;;;;;;;;;;5026475;28;20045;-63
2022/08/01 02:08:41;;;;;;;11.45;6.72;;;;;;;;;;5012480;28;20488;-63
2022/08/01 02:11:19;;;;;;;9.05;6.07;;;;;;;;;;5031949;28;20075;-63
2022/08/01 02:13:47;;;;;;;11.63;6.07;;;;;;;;;;5028365;28;20515;-63
2022/08/01 02:16:14;;;;;;;9.98;6.32;;;;;;;;;;5028564;28;20404;-63
2022/08/01 02:18:43;;;;;;;12.20;6.28;;;;;;;;;;5028260;28;20045;-64
2022/08/01 02:21:12;;;;;;;9.73;6.25;;;;;;;;;;5025499;28;20072;-64
2022/08/01 02:23:39;;;;;;;7.53;5.18;;;;;;;;;;5026428;28;20042;-64
2022/08/01 02:26:08;;;;;;;6.07;4.13;;;;;;;;;;5032616;28;20030;-64
2022/08/01 02:28:53;;;;;;;6.32;3.63;;;;;;;;;;5026293;28;20164;-64
2022/08/01 02:31:21;;;;;;;4.45;3.10;;;;;;;;;;5010925;28;20403;-64
2022/08/01 02:33:50;;;;;;;3.83;3.00;;;;;;;;;;5028210;28;20041;-64
2022/08/01 02:36:17;;;;;;;4.45;3.35;;;;;;;;;;5026784;28;20107;-63
2022/08/01 02:38:45;;;;;;;3.38;2.95;;;;;;;;;;5032127;28;20060;-64
2022/08/01 02:41:13;;;;;;;4.97;2.75;;;;;;;;;;5032786;28;20044;-64
2022/08/01 02:43:42;;;;;;;5.50;3.15;;;;;;;;;;5031177;28;20036;-64
2022/08/01 02:46:12;;;;;;;4.43;3.50;;;;;;;;;;5032299;28;20041;-64
2022/08/01 02:48:40;;;;;;;4.80;3.40;;;;;;;;;;5028292;28;20396;-64
2022/08/01 02:51:06;;;;;;;5.47;3.03;;;;;;;;;;5030547;28;20067;-64
2022/08/01 02:53:36;;;;;;;5.68;3.15;;;;;;;;;;5032522;28;20511;-64
2022/08/01 02:56:04;;;;;;;5.13;3.20;;;;;;;;;;5027128;28;20073;-64
2022/08/01 02:58:30;;;;;;;5.65;3.30;;;;;;;;;;5029275;28;20041;-64
2022/08/01 03:00:57;;;;;;;4.43;3.20;;;;;;;;;;5041227;22;20506;-65
2022/08/01 03:03:24;;;;;;;4.95;3.42;;;;;;;;;;5050613;28;20057;-65
2022/08/01 03:05:50;;;;;;;4.18;3.47;;;;;;;;;;5050923;28;20105;-65
2022/08/01 03:08:17;;;;;;;8.25;3.55;;;;;;;;;;5051443;28;20123;-65
2022/08/01 03:10:45;;;;;;;5.05;3.58;;;;;;;;;;5036744;28;20116;-66
2022/08/01 03:13:11;;;;;;;6.22;4.03;;;;;;;;;;5030241;28;20034;-65
2022/08/01 03:15:39;;;;;;;4.57;3.60;;;;;;;;;;5028117;28;20045;-65
2022/08/01 03:18:06;;;;;;;6.50;3.40;;;;;;;;;;5027094;28;20135;-65
2022/08/01 03:20:33;;;;;;;7.07;3.72;;;;;;;;;;5026172;28;20073;-66
2022/08/01 03:23:03;;;;;;;5.78;3.38;;;;;;;;;;5026135;28;20550;-65
2022/08/01 03:25:29;;;;;;;5.18;3.95;;;;;;;;;;5028439;28;20044;-65
2022/08/01 03:27:56;;;;;;;5.65;3.30;;;;;;;;;;5029869;28;20033;-65
2022/08/01 03:30:24;;;;;;;4.70;3.40;;;;;;;;;;5028383;28;20407;-65
2022/08/01 03:32:50;;;;;;;7.03;3.08;;;;;;;;;;5030095;28;20120;-65
2022/08/01 03:35:17;;;;;;;5.70;2.80;;;;;;;;;;5031821;28;20033;-65
2022/08/01 03:37:44;;;;;;;3.85;2.40;;;;;;;;;;5030334;28;20047;-65
2022/08/01 03:40:22;;;;;;;6.00;2.58;;;;;;;;;;5030222;28;20041;-66
2022/08/01 03:42:50;;;;;;;5.78;2.15;;;;;;;;;;5030473;28;20064;-65
2022/08/01 03:45:20;;;;;;;4.70;2.10;;;;;;;;;;5031808;28;20037;-65
2022/08/01 03:47:47;;;;;;;4.00;2.53;;;;;;;;;;5028828;28;20069;-65
2022/08/01 03:50:14;;;;;;;7.68;2.53;;;;;;;;;;5028641;28;20044;-65
2022/08/01 03:52:42;;;;;;;4.28;2.10;;;;;;;;;;5030198;28;20152;-65
2022/08/01 03:55:08;;;;;;;5.07;2.30;;;;;;;;;;5031858;28;20041;-66
2022/08/01 03:57:34;;;;;;;4.45;2.15;;;;;;;;;;5028426;28;20045;-65
2022/08/01 04:00:01;;;;;;;5.72;2.17;;;;;;;;;;5030911;28;20069;-65
2022/08/01 04:02:27;;;;;;;2.92;1.92;;;;;;;;;;5021917;28;20037;-65
2022/08/01 04:04:54;;;;;;;4.75;2.20;;;;;;;;;;5037020;28;20104;-66
2022/08/01 04:07:24;;;;;;;4.55;2.38;;;;;;;;;;5031263;28;20476;-65
2022/08/01 04:09:51;;;;;;;6.72;2.00;;;;;;;;;;5029805;28;20038;-65
2022/08/01 04:12:17;;;;;;;7.25;2.00;;;;;;;;;;5031085;28;20124;-65
2022/08/01 04:14:43;;;;;;;6.57;2.55;;;;;;;;;;5029494;28;20030;-65
2022/08/01 04:17:09;;;;;;;6.30;2.33;;;;;;;;;;5028844;28;20038;-65
2022/08/01 04:19:35;;;;;;;3.92;1.83;;;;;;;;;;5028761;28;20084;-65
2022/08/01 04:22:02;;;;;;;4.53;1.98;;;;;;;;;;5027950;28;20034;-65
2022/08/01 04:24:29;;;;;;;5.03;2.08;;;;;;;;;;5029899;28;20177;-65
2022/08/01 04:26:57;;;;;;;8.38;2.25;;;;;;;;;;5029621;28;20037;-65
2022/08/01 04:29:24;;;;;;;8.57;2.30;;;;;;;;;;5033311;28;20095;-65
2022/08/01 04:31:51;;;;;;;6.20;1.92;;;;;;;;;;5025638;28;20067;-65
2022/08/01 04:34:20;;;;;;;2.95;1.90;;;;;;;;;;5030526;28;20029;-65
2022/08/01 04:36:48;;;;;;;7.78;2.20;;;;;;;;;;5029525;28;20042;-65
2022/08/01 04:39:16;;;;;;;8.27;2.00;;;;;;;;;;5029468;28;20034;-65
2022/08/01 04:41:42;;;;;;;4.82;1.85;;;;;;;;;;5039951;28;20041;-65
2022/08/01 04:44:08;;;;;;;4.85;1.77;;;;;;;;;;5037108;28;20048;-65
2022/08/01 04:46:36;;;;;;;7.57;2.25;;;;;;;;;;5030006;28;20033;-65
2022/08/01 04:49:02;;;;;;;5.30;2.03;;;;;;;;;;5022859;28;20038;-65
2022/08/01 04:51:28;;;;;;;6.72;2.30;;;;;;;;;;5025027;28;20438;-65
2022/08/01 04:53:54;;;;;;;5.95;2.42;;;;;;;;;;5025873;28;20411;-64
2022/08/01 04:56:21;;;;;;;8.52;2.58;;;;;;;;;;5030969;28;20562;-65
2022/08/01 04:58:47;;;;;;;11.27;2.83;;;;;;;;;;5034230;28;20406;-65
2022/08/01 05:01:13;;;;;;;11.32;3.05;;;;;;;;;;5038545;28;20041;-65
2022/08/01 05:03:39;;;;;;;6.85;2.47;;;;;;;;;;5028038;28;20033;-65
2022/08/01 05:06:05;;;;;;;8.13;2.78;;;;;;;;;;5030623;28;20088;-65
2022/08/01 05:08:31;;;;;;;8.45;2.65;;;;;;;;;;5011458;28;20042;-65
2022/08/01 05:10:57;;;;;;;6.15;2.30;;;;;;;;;;5036220;28;20041;-65
2022/08/01 05:13:23;;;;;;;7.78;2.67;;;;;;;;;;5031007;28;20121;-65
2022/08/01 05:15:49;;;;;;;7.25;2.55;;;;;;;;;;5028281;28;20045;-65
2022/08/01 05:18:16;;;;;;;10.05;2.72;;;;;;;;;;5031391;28;20407;-65
2022/08/01 05:20:42;;;;;;;6.95;3.03;;;;;;;;;;5031294;28;20444;-65
2022/08/01 05:23:08;;;;;;;5.22;2.63;;;;;;;;;;5025442;28;20076;-65
2022/08/01 05:25:34;;;;;;;5.38;2.53;;;;;;;;;;5032804;28;20041;-65
2022/08/01 05:28:00;;;;;;;7.85;2.90;;;;;;;;;;5043721;28;20047;-65
2022/08/01 05:30:26;;;;;;;8.77;2.85;;;;;;;;;;5035464;28;20041;-65
2022/08/01 05:32:52;;;;;;;7.38;2.20;;;;;;;;;;5033917;28;20069;-65
2022/08/01 05:35:18;;;;;;;6.82;2.45;;;;;;;;;;5032497;28;20116;-65
2022/08/01 05:37:44;;;;;;;6.70;2.72;;;;;;;;;;5038199;28;20079;-65
2022/08/01 05:40:10;;;;;;;10.95;2.70;;;;;;;;;;5044200;28;20044;-65
2022/08/01 05:42:36;;;;;;;10.57;2.67;;;;;;;;;;5034013;28;20045;-65
2022/08/01 05:45:03;;;;;;;7.32;3.00;;;;;;;;;;5029760;28;20465;-65
2022/08/01 05:47:29;;;;;;;9.18;3.05;;;;;;;;;;5034062;28;20116;-65
2022/08/01 05:49:55;;;;;;;10.05;3.35;;;;;;;;;;5029794;28;20411;-65
2022/08/01 05:52:21;;;;;;;8.75;2.67;;;;;;;;;;5029422;28;20096;-65
2022/08/01 05:54:47;;;;;;;8.02;2.88;;;;;;;;;;5039017;28;20087;-65
2022/08/01 05:57:13;;;;;;;8.50;2.70;;;;;;;;;;5034604;28;20034;-65
2022/08/01 05:59:39;;;;;;;9.90;3.50;;;;;;;;;;5030637;28;20044;-65
2022/08/01 06:02:05;;;;;;;12.25;3.60;;;;;;;;;;5030767;28;20088;-65
2022/08/01 06:04:31;;;;;;;8.88;3.13;;;;;;;;;;5027178;28;20092;-65
2022/08/01 06:06:57;;;;;;;10.63;2.92;;;;;;;;;;5027160;28;20037;-65
2022/08/01 06:09:23;;;;;;;10.32;2.88;;;;;;;;;;5026871;28;20495;-66
2022/08/01 06:11:49;;;;;;;12.77;2.92;;;;;;;;;;5030429;28;20064;-66
2022/08/01 06:14:15;;;;;;;12.93;3.17;;;;;;;;;;5033622;28;20518;-66
2022/08/01 06:16:41;;;;;;;11.52;2.78;;;;;;;;;;5029265;28;20054;-65
2022/08/01 06:19:07;;;;;;;12.70;2.55;;;;;;;;;;5031591;28;20072;-66
2022/08/01 06:21:33;;;;;;;15.07;3.25;;;;;;;;;;5025083;28;20133;-65
2022/08/01 06:23:59;;;;;;;10.80;2.80;;;;;;;;;;5033866;28;20129;-66
2022/08/01 06:26:25;;;;;;;10.13;2.55;;;;;;;;;;5033657;28;20037;-65
2022/08/01 06:28:51;;;;;;;10.77;2.75;;;;;;;;;;5033158;28;20050;-66
2022/08/01 06:31:17;;;;;;;18.17;3.35;;;;;;;;;;5028627;28;20056;-65
2022/08/01 06:33:43;;;;;;;16.65;3.05;;;;;;;;;;5032134;28;20041;-65
2022/08/01 06:36:09;;;;;;;11.65;2.95;;;;;;;;;;5032676;28;20119;-66
2022/08/01 06:38:35;;;;;;;13.95;2.75;;;;;;;;;;5032527;28;20510;-65
2022/08/01 06:41:02;;;;;;;11.82;3.13;;;;;;;;;;5030435;28;20044;-65
2022/08/01 06:43:28;;;;;;;13.80;3.50;;;;;;;;;;5032092;28;20407;-66
2022/08/01 06:45:54;;;;;;;16.73;3.28;;;;;;;;;;5028763;28;20057;-66
2022/08/01 06:48:20;;;;;;;16.60;3.55;;;;;;;;;;5030577;28;20041;-66
2022/08/01 06:50:46;;;;;;;14.40;3.15;;;;;;;;;;5028922;28;20041;-65
2022/08/01 06:53:12;;;;;;;13.70;3.03;;;;;;;;;;5029431;28;20038;-65
2022/08/01 06:55:38;;;;;;;11.85;3.17;;;;;;;;;;5028149;28;20041;-65
2022/08/01 06:58:04;;;;;;;13.77;2.60;;;;;;;;;;5030684;28;20042;-66
2022/08/01 07:00:30;;;;;;;11.98;3.20;;;;;;;;;;5024250;28;20045;-65
2022/08/01 07:02:59;;;;;;;11.00;2.60;;;;;;;;;;5028924;28;20042;-65
2022/08/01 07:05:25;;;;;;;12.50;3.28;;;;;;;;;;5025048;28;20457;-65
2022/08/01 07:07:51;;;;;;;13.18;2.67;;;;;;;;;;5029390;28;20080;-65
2022/08/01 07:10:17;;;;;;;14.77;3.00;;;;;;;;;;5019242;28;20502;-65
2022/08/01 07:12:43;;;;;;;10.05;3.05;;;;;;;;;;5024412;28;20041;-65
2022/08/01 07:15:10;;;;;;;15.18;3.20;;;;;;;;;;5027487;28;20040;-65
2022/08/01 07:17:39;;;;;;;16.20;2.85;;;;;;;;;;5025026;28;20513;-65
2022/08/01 07:20:06;;;;;;;13.40;2.95;;;;;;;;;;5022482;28;20045;-65
2022/08/01 07:22:32;;;;;;;10.40;2.60;;;;;;;;;;5028088;28;20037;-65
2022/08/01 07:24:58;;;;;;;11.20;3.03;;;;;;;;;;5023184;28;20033;-65
2022/08/01 07:27:24;;;;;;;18.48;3.00;;;;;;;;;;5020575;28;20033;-65
2022/08/01 07:29:50;;;;;;;14.40;3.13;;;;;;;;;;5027731;28;20041;-65
2022/08/01 07:32:16;;;;;;;14.05;2.90;;;;;;;;;;5027581;28;20029;-65
2022/08/01 07:34:42;;;;;;;13.45;2.75;;;;;;;;;;5030112;28;20025;-65
2022/08/01 07:37:08;;;;;;;14.45;3.08;;;;;;;;;;5032345;28;20681;-66
2022/08/01 07:39:34;;;;;;;8.85;2.55;;;;;;;;;;5031111;28;20038;-65
2022/08/01 07:42:00;;;;;;;15.00;2.95;;;;;;;;;;5030806;28;20095;-65
2022/08/01 07:44:26;;;;;;;16.75;3.22;;;;;;;;;;5032892;28;20042;-65
2022/08/01 07:46:52;;;;;;;10.98;2.78;;;;;;;;;;5028421;28;20044;-65
2022/08/01 07:49:19;;;;;;;13.07;2.75;;;;;;;;;;5028838;28;20033;-65
2022/08/01 07:51:45;;;;;;;12.98;2.80;;;;;;;;;;5028894;28;20527;-65
2022/08/01 07:54:11;;;;;;;13.35;3.40;;;;;;;;;;5029286;28;20041;-65
2022/08/01 07:56:37;;;;;;;18.02;3.20;;;;;;;;;;5028426;28;20045;-66
2022/08/01 07:59:03;;;;;;;13.38;3.53;;;;;;;;;;5010727;28;20505;-65
2022/08/01 08:01:29;;;;;;;18.05;3.15;;;;;;;;;;5027717;28;20055;-66
2022/08/01 08:03:55;;;;;;;15.63;3.30;;;;;;;;;;5030511;28;20034;-66
2022/08/01 08:06:21;;;;;;;13.05;3.38;;;;;;;;;;5032255;28;20430;-66
2022/08/01 08:08:47;;;;;;;14.73;3.20;;;;;;;;;;5030687;28;20614;-66
2022/08/01 08:11:13;;;;;;;15.85;3.60;;;;;;;;;;5031305;28;20500;-66
2022/08/01 08:13:39;;;;;;;18.77;3.63;;;;;;;;;;5027311;28;20056;-66
2022/08/01 08:16:05;;;;;;;13.60;3.30;;;;;;;;;;5027558;28;20049;-66
2022/08/01 08:18:31;;;;;;;14.55;3.33;;;;;;;;;;5042774;28;20049;-65
2022/08/01 08:20:57;;;;;;;18.42;3.83;;;;;;;;;;5032022;28;21209;-66
2022/08/01 08:26:08;;;;;;;15.43;3.30;;;;;;;;;;5020441;28;20044;-66
2022/08/01 08:28:34;;;;;;;11.15;3.20;;;;;;;;;;5029822;28;20103;-66
2022/08/01 08:31:00;;;;;;;12.32;2.80;;;;;;;;;;5030835;28;20492;-66
2022/08/01 08:33:26;;;;;;;16.88;3.20;;;;;;;;;;5031797;28;20067;-65
2022/08/01 08:35:54;;;;;;;15.70;3.50;;;;;;;;;;5030784;28;20069;-66
2022/08/01 08:38:20;;;;;;;17.85;3.70;;;;;;;;;;5031484;28;20568;-66
2022/08/01 08:40:46;;;;;;;14.85;3.28;;;;;;;;;;5030575;28;20569;-65
2022/08/01 08:43:12;;;;;;;11.88;3.42;;;;;;;;;;5029658;28;20033;-66
2022/08/01 08:45:38;;;;;;;24.38;4.07;;;;;;;;;;5031465;28;20506;-66
2022/08/01 08:48:06;;;;;;;23.10;3.85;;;;;;;;;;5031338;28;20045;-65
2022/08/01 08:50:32;;;;;;;18.83;3.45;;;;;;;;;;5031158;28;20518;-65
2022/08/01 08:53:01;;;;;;;15.30;3.63;;;;;;;;;;5031180;28;20536;-66
2022/08/01 08:55:28;;;;;;;14.85;3.13;;;;;;;;;;5031282;28;20053;-65
2022/08/01 08:57:55;;;;;;;12.93;3.35;;;;;;;;;;5028574;28;20041;-65
2022/08/01 09:00:21;;;;;;;16.20;3.22;;;;;;;;;;5053104;22;20067;-60
2022/08/01 09:02:48;;;;;;;13.57;2.80;;;;;;;;;;5052379;28;20131;-60
2022/08/01 09:05:16;;;;;;;15.65;3.47;;;;;;;;;;5054894;28;20495;-61
2022/08/01 09:07:42;;;;;;;12.73;3.30;;;;;;;;;;5055023;28;20039;-61
2022/08/01 09:10:09;;;;;;;11.10;3.42;;;;;;;;;;5054881;28;20077;-61
2022/08/01 09:12:35;;;;;;;13.30;3.10;;;;;;;;;;5053073;28;20395;-61
2022/08/01 09:15:01;;;;;;;12.95;2.85;;;;;;;;;;5054774;28;20040;-61
2022/08/01 09:17:27;;;;;;;9.60;2.92;;;;;;;;;;5053935;28;20112;-61
2022/08/01 09:19:54;;;;;;;16.58;3.03;;;;;;;;;;5054672;28;20042;-61
2022/08/01 09:22:22;;;;;;;10.20;2.30;;;;;;;;;;5054141;28;20055;-61
2022/08/01 09:25:21;;;;;;;12.07;2.70;;;;;;;;;;5054360;28;20037;-61
2022/08/01 09:27:47;;;;;;;12.43;2.47;;;;;;;;;;5011112;28;20055;-61
2022/08/01 09:30:14;;;;;;;7.60;2.25;;;;;;;;;;5053307;28;20128;-61
2022/08/01 09:33:02;;;;;;;9.15;2.70;;;;;;;;;;5054331;28;20090;-61
2022/08/01 09:35:28;;;;;;;10.35;2.30;;;;;;;;;;5055069;28;20036;-61
2022/08/01 09:38:16;;;;;;;10.40;2.65;;;;;;;;;;5035455;28;20041;-61
2022/08/01 09:40:48;;;;;;;9.27;1.92;;;;;;;;;;5047466;28;20386;-61
2022/08/01 09:43:14;;;;;;;9.35;2.15;;;;;;;;;;5054012;28;20483;-61
2022/08/01 09:45:40;;;;;;;8.27;2.30;;;;;;;;;;5054838;28;20116;-60
2022/08/01 09:48:07;;;;;;;11.07;2.60;;;;;;;;;;5054314;28;20068;-61
2022/08/01 09:50:41;;;;;;;10.60;2.65;;;;;;;;;;5053217;28;20033;-61
2022/08/01 09:53:07;;;;;;;10.38;2.75;;;;;;;;;;5052972;28;20129;-61
2022/08/01 09:55:33;;;;;;;13.13;2.47;;;;;;;;;;5036059;28;20041;-61
2022/08/01 09:58:00;;;;;;;11.90;2.78;;;;;;;;;;5053899;28;20056;-61
2022/08/01 10:00:27;;;;;;;11.55;2.88;;;;;;;;;;5054073;28;20404;-61
2022/08/01 10:02:53;;;;;;;6.90;2.45;;;;;;;;;;5053788;28;20037;-61
2022/08/01 10:05:30;;;;;;;10.73;2.35;;;;;;;;;;5053315;28;20064;-60
2022/08/01 10:08:01;;;;;;;11.43;2.33;;;;;;;;;;5052655;28;20033;-61
2022/08/01 10:10:27;;;;;;;;;;;;;;;;;;5035973;28;20051;-61
2022/08/01 10:12:55;;;;;;;10.85;2.72;;;;;;;;;;5053576;28;20363;-61
2022/08/01 10:15:21;;;;;;;9.48;2.60;;;;;;;;;;5052842;28;20052;-61
2022/08/01 10:17:53;;;;;;;10.45;2.47;;;;;;;;;;5054089;28;20055;-61
2022/08/01 10:20:20;;;;;;;8.25;2.45;;;;;;;;;;5046202;28;20626;-61
2022/08/01 10:22:47;;;;;;;10.57;2.83;;;;;;;;;;5051880;28;20576;-61
2022/08/01 10:25:16;;;;;;;10.98;2.65;;;;;;;;;;5053083;28;20398;-61
2022/08/01 10:27:45;;;;;;;10.48;2.40;;;;;;;;;;5053344;28;20124;-61
2022/08/01 10:30:11;;;;;;;11.65;2.10;;;;;;;;;;5053399;28;20541;-60
2022/08/01 10:32:38;;;;;;;7.03;2.28;;;;;;;;;;5053154;28;20482;-61
2022/08/01 10:35:05;;;;;;;7.47;2.08;;;;;;;;;;5052674;28;20483;-61
2022/08/01 10:37:31;;;;;;;9.30;2.03;;;;;;;;;;5050814;28;20502;-61
2022/08/01 10:39:57;;;;;;;10.60;2.30;;;;;;;;;;5053348;28;20040;-61
2022/08/01 10:42:23;;;;;;;8.43;2.50;;;;;;;;;;5053678;28;20072;-61
2022/08/01 10:44:50;;;;;;;9.05;2.15;;;;;;;;;;5048083;28;20068;-61
2022/08/01 10:47:24;;;;;;;6.90;1.88;;;;;;;;;;5033311;28;20460;-60
2022/08/01 10:50:03;;;;;;;7.00;2.42;;;;;;;;;;5052744;28;20036;-61
2022/08/01 10:52:29;;;;;;;6.55;1.88;;;;;;;;;;5053457;28;20040;-61
2022/08/01 10:55:04;;;;;;;9.07;2.35;;;;;;;;;;5051756;28;20059;-61
2022/08/01 10:57:44;;;;;;;6.47;2.08;;;;;;;;;;5052934;28;20116;-61
2022/08/01 11:00:17;;;;;;;6.53;1.63;;;;;;;;;;5052698;28;20489;-61
2022/08/01 11:02:57;;;;;;;9.27;2.10;;;;;;;;;;5052087;28;20048;-61
2022/08/01 11:05:23;;;;;;;9.95;2.30;;;;;;;;;;5053292;28;20072;-61
2022/08/01 11:07:53;;;;;;;8.85;1.80;;;;;;;;;;5051959;28;20040;-61
2022/08/01 11:10:54;;;;;;;8.90;2.30;;;;;;;;;;5051383;28;20087;-61
2022/08/01 11:13:40;;;;;;;3.92;1.58;;;;;;;;;;4963340;28;20043;-61
2022/08/01 11:16:24;;;;;;;4.13;1.33;;;;;;;;;;5047524;28;20087;-61
2022/08/01 11:18:51;;;;;;;10.07;2.38;;;;;;;;;;5043618;28;20049;-61
2022/08/01 11:21:18;;;;;;;6.03;1.50;;;;;;;;;;5051167;28;20037;-61
2022/08/01 11:23:48;;;;;;;9.88;1.58;;;;;;;;;;5052414;28;20041;-60
2022/08/01 11:26:15;;;;;;;5.03;1.60;;;;;;;;;;5051893;28;20565;-61
2022/08/01 11:28:41;;;;;;;5.82;1.50;;;;;;;;;;5052189;28;20079;-61
2022/08/01 11:31:07;;;;;;;8.93;1.70;;;;;;;;;;5052496;28;20499;-60
2022/08/01 11:33:42;;;;;;;7.30;1.38;;;;;;;;;;5050640;28;20037;-60
2022/08/01 11:36:11;;;;;;;5.40;1.25;;;;;;;;;;5033739;28;20583;-61
2022/08/01 11:38:38;;;;;;;6.78;1.52;;;;;;;;;;5044062;28;20050;-61
2022/08/01 11:41:30;;;;;;;3.53;1.27;;;;;;;;;;5052512;28;20094;-61
2022/08/01 11:44:02;;;;;;;7.85;1.40;;;;;;;;;;5049587;28;20115;-61
2022/08/01 11:46:47;;;;;;;7.88;1.42;;;;;;;;;;5051845;28;20103;-60
2022/08/01 11:49:23;;;;;;;5.00;1.30;;;;;;;;;;5051868;28;20043;-61
2022/08/01 11:51:57;;;;;;;8.73;1.80;;;;;;;;;;5050803;28;20083;-61
2022/08/01 11:54:30;;;;;;;6.97;2.05;;;;;;;;;;5051825;28;20051;-60
2022/08/01 11:56:59;;;;;;;4.22;1.30;;;;;;;;;;5052416;28;20037;-61
2022/08/01 11:59:26;;;;;;;4.95;1.33;;;;;;;;;;5051706;28;20510;-60
2022/08/01 12:01:52;;;;;;;6.20;1.50;;;;;;;;;;5050737;28;20048;-61
2022/08/01 12:04:18;;;;;;;5.80;1.40;;;;;;;;;;5050554;28;20033;-60
2022/08/01 12:06:44;;;;;;;4.93;1.48;;;;;;;;;;5051018;28;20041;-61
2022/08/01 12:09:21;;;;;;;4.05;1.48;;;;;;;;;;5050587;28;20083;-61
2022/08/01 12:11:47;;;;;;;4.30;1.20;;;;;;;;;;5050837;28;20032;-60
2022/08/01 12:14:16;;;;;;;4.65;1.23;;;;;;;;;;5051622;28;20043;-60
2022/08/01 12:16:48;;;;;;;5.30;1.42;;;;;;;;;;5050792;28;20037;-60
2022/08/01 12:19:19;;;;;;;6.88;1.42;;;;;;;;;;5045925;28;20045;-61
2022/08/01 12:21:45;;;;;;;6.13;1.95;;;;;;;;;;5046495;28;20036;-60
2022/08/01 12:24:11;;;;;;;4.43;1.40;;;;;;;;;;5050991;28;20399;-61
2022/08/01 12:26:41;;;;;;;4.65;1.55;;;;;;;;;;5050818;28;20041;-61
2022/08/01 12:29:07;;;;;;;6.97;1.65;;;;;;;;;;5051113;28;20071;-61
2022/08/01 12:31:34;;;;;;;6.85;1.23;;;;;;;;;;5050747;28;20055;-61
2022/08/01 12:34:20;;;;;;;4.70;1.23;;;;;;;;;;5050958;28;20120;-61
2022/08/01 12:36:46;;;;;;;8.63;1.48;;;;;;;;;;5031149;28;20041;-61
2022/08/01 12:39:12;;;;;;;7.15;1.48;;;;;;;;;;5019781;28;20727;-61
2022/08/01 12:41:39;;;;;;;5.75;1.50;;;;;;;;;;5050722;28;20579;-60
2022/08/01 12:44:14;;;;;;;5.15;1.52;;;;;;;;;;5051104;28;20036;-60
2022/08/01 12:46:40;;;;;;;6.72;1.50;;;;;;;;;;5050530;28;20564;-61
2022/08/01 12:49:06;;;;;;;4.65;1.17;;;;;;;;;;5050987;28;20494;-61
2022/08/01 12:51:32;;;;;;;8.88;1.58;;;;;;;;;;5051691;28;20037;-61
2022/08/01 12:53:59;;;;;;;4.13;1.20;;;;;;;;;;5049906;28;20494;-60
2022/08/01 12:56:32;;;;;;;5.45;1.20;;;;;;;;;;5051135;28;20407;-61
2022/08/01 12:58:59;;;;;;;3.17;1.38;;;;;;;;;;5050270;28;20055;-60
2022/08/01 13:01:28;;;;;;;7.05;1.33;;;;;;;;;;5050154;28;20507;-60
2022/08/01 13:04:06;;;;;;;4.85;1.60;;;;;;;;;;5050563;28;20494;-60
2022/08/01 13:06:35;;;;;;;4.70;1.08;;;;;;;;;;5051548;28;20112;-61
2022/08/01 13:09:08;;;;;;;5.20;1.30;;;;;;;;;;5049251;28;20047;-60
2022/08/01 13:11:34;;;;;;;5.90;1.52;;;;;;;;;;5049398;28;20059;-60
2022/08/01 13:14:01;;;;;;;2.85;1.10;;;;;;;;;;5051034;28;20049;-61
2022/08/01 13:16:27;;;;;;;8.05;1.85;;;;;;;;;;5051192;28;20044;-61
2022/08/01 13:18:54;;;;;;;5.10;1.27;;;;;;;;;;5048812;28;20131;-60
2022/08/01 13:21:24;;;;;;;5.18;1.38;;;;;;;;;;5033635;28;20103;-60
2022/08/01 13:24:01;;;;;;;7.57;1.52;;;;;;;;;;5048804;28;20045;-61
2022/08/01 13:26:47;;;;;;;4.35;1.33;;;;;;;;;;5050454;28;20043;-61
2022/08/01 13:29:15;;;;;;;4.63;1.40;;;;;;;;;;5050897;28;20079;-61
2022/08/01 13:31:41;;;;;;;5.32;1.30;;;;;;;;;;5050667;28;20124;-61
2022/08/01 13:34:08;;;;;;;3.47;1.08;;;;;;;;;;5050704;28;20144;-61
2022/08/01 13:36:34;;;;;;;8.70;1.67;;;;;;;;;;5050952;28;20045;-61
2022/08/01 13:41:45;;;;;;;6.30;1.38;;;;;;;;;;5048464;28;20462;-61
2022/08/01 13:44:11;;;;;;;5.60;1.60;;;;;;;;;;5050477;28;20490;-61
2022/08/01 13:46:38;;;;;;;4.43;1.50;;;;;;;;;;5050958;28;20577;-61
2022/08/01 13:49:05;;;;;;;3.58;1.60;;;;;;;;;;5033202;28;20517;-60
2022/08/01 13:51:31;;;;;;;6.00;1.63;;;;;;;;;;5054233;28;20102;-60
2022/08/01 13:53:57;;;;;;;7.78;1.35;;;;;;;;;;5053307;28;20098;-61
2022/08/01 13:56:24;;;;;;;6.13;1.30;;;;;;;;;;5053518;28;20396;-60
2022/08/01 13:58:50;;;;;;;6.30;1.10;;;;;;;;;;5053945;28;20552;-60
2022/08/01 14:01:16;;;;;;;3.95;1.30;;;;;;;;;;5054191;28;20044;-61
2022/08/01 14:03:42;;;;;;;4.72;1.15;;;;;;;;;;5054061;28;20037;-61
2022/08/01 14:06:08;;;;;;;5.40;1.48;;;;;;;;;;5053332;28;20162;-61
2022/08/01 14:08:34;;;;;;;5.15;1.30;;;;;;;;;;5053989;28;20075;-61
2022/08/01 14:11:00;;;;;;;7.22;1.40;;;;;;;;;;5053395;28;20426;-60
2022/08/01 14:13:27;;;;;;;4.72;1.20;;;;;;;;;;5044494;28;20052;-60
2022/08/01 14:15:53;;;;;;;4.57;1.30;;;;;;;;;;5048212;28;20082;-60
2022/08/01 14:18:19;;;;;;;4.63;1.20;;;;;;;;;;5048212;28;20041;-60
2022/08/01 14:20:45;;;;;;;3.88;1.08;;;;;;;;;;5048380;28;20041;-60
2022/08/01 14:23:11;;;;;;;4.68;1.13;;;;;;;;;;5047154;28;20174;-60
2022/08/01 14:25:37;;;;;;;5.68;1.38;;;;;;;;;;5051752;28;20134;-60
2022/08/01 14:28:04;;;;;;;5.78;1.50;;;;;;;;;;5050442;28;20049;-60
2022/08/01 14:30:30;;;;;;;8.60;2.00;;;;;;;;;;5049544;28;20044;-61
2022/08/01 14:32:56;;;;;;;4.47;1.20;;;;;;;;;;5051833;28;20044;-60
2022/08/01 14:35:22;;;;;;;5.05;1.30;;;;;;;;;;5050381;28;20033;-61
2022/08/01 14:37:48;;;;;;;6.30;1.20;;;;;;;;;;5053464;28;20052;-61
2022/08/01 14:40:14;;;;;;;4.97;1.10;;;;;;;;;;5050602;28;20037;-60
2022/08/01 14:42:40;;;;;;;4.20;1.33;;;;;;;;;;5051691;28;20040;-61
2022/08/01 14:45:10;;;;;;;5.63;1.33;;;;;;;;;;5051373;28;20033;-61
2022/08/01 14:47:37;;;;;;;4.07;1.07;;;;;;;;;;5043767;28;20033;-61
2022/08/01 14:50:04;;;;;;;4.60;1.38;;;;;;;;;;5050565;28;20036;-61